sensor_id;sensor_type;location;lat;lon;timestamp;P1;durP1;ratioP1;P2;durP2;ratioP2
23658;SDS011;12006;42.666;23.326;2022-12-31T00:00:56;40.90;;;29.07;;
23658;SDS011;12006;42.666;23.326;2022-12-31T00:03:22;38.70;;;28.20;;
23658;SDS011;12006;42.666;23.326;2022-12-31T00:05:47;37.47;;;29.23;;
23658;SDS011;12006;42.666;23.326;2022-12-31T00:08:12;36.23;;;27.23;;
23658;SDS011;12006;42.666;23.326;2022-12-31T00:10:37;36.37;;;27.40;;
23658;SDS011;12006;42.666;23.326;2022-12-31T00:13:06;40.10;;;27.57;;
23658;SDS011;12006;42.666;23.326;2022-12-31T00:15:31;36.60;;;26.90;;
23658;SDS011;12006;42.666;23.326;2022-12-31T00:17:56;39.53;;;26.67;;
23658;SDS011;12006;42.666;23.326;2022-12-31T00:20:21;37.87;;;28.03;;
23658;SDS011;12006;42.666;23.326;2022-12-31T00:22:47;36.90;;;27.13;;
23658;SDS011;12006;42.666;23.326;2022-12-31T00:25:12;34.90;;;27.37;;
23658;SDS011;12006;42.666;23.326;2022-12-31T00:27:37;34.90;;;27.73;;
23658;SDS011;12006;42.666;23.326;2022-12-31T00:30:02;37.03;;;26.53;;
23658;SDS011;12006;42.666;23.326;2022-12-31T00:32:28;33.27;;;25.57;;
23658;SDS011;12006;42.666;23.326;2022-12-31T00:34:53;35.97;;;26.30;;
23658;SDS011;12006;42.666;23.326;2022-12-31T00:37:18;37.00;;;26.63;;
23658;SDS011;12006;42.666;23.326;2022-12-31T00:39:43;32.10;;;25.47;;
23658;SDS011;12006;42.666;23.326;2022-12-31T00:42:09;33.70;;;25.60;;
23658;SDS011;12006;42.666;23.326;2022-12-31T00:44:34;36.70;;;27.63;;
23658;SDS011;12006;42.666;23.326;2022-12-31T00:46:59;37.87;;;27.10;;
23658;SDS011;12006;42.666;23.326;2022-12-31T00:49:24;34.27;;;26.77;;
23658;SDS011;12006;42.666;23.326;2022-12-31T00:51:50;39.83;;;28.67;;
23658;SDS011;12006;42.666;23.326;2022-12-31T00:54:15;38.53;;;30.10;;
23658;SDS011;12006;42.666;23.326;2022-12-31T00:56:40;34.27;;;27.13;;
23658;SDS011;12006;42.666;23.326;2022-12-31T00:59:05;37.33;;;27.33;;
23658;SDS011;12006;42.666;23.326;2022-12-31T01:01:35;33.80;;;27.07;;
23658;SDS011;12006;42.666;23.326;2022-12-31T01:04:02;38.23;;;27.53;;
23658;SDS011;12006;42.666;23.326;2022-12-31T01:06:28;36.93;;;28.50;;
23658;SDS011;12006;42.666;23.326;2022-12-31T01:08:53;35.00;;;26.33;;
23658;SDS011;12006;42.666;23.326;2022-12-31T01:11:20;37.57;;;27.30;;
23658;SDS011;12006;42.666;23.326;2022-12-31T01:13:55;35.70;;;27.63;;
23658;SDS011;12006;42.666;23.326;2022-12-31T01:16:25;36.77;;;27.70;;
23658;SDS011;12006;42.666;23.326;2022-12-31T01:18:50;41.60;;;31.50;;
23658;SDS011;12006;42.666;23.326;2022-12-31T01:21:16;38.87;;;30.43;;
23658;SDS011;12006;42.666;23.326;2022-12-31T01:23:41;37.63;;;28.30;;
23658;SDS011;12006;42.666;23.326;2022-12-31T01:26:07;42.77;;;31.13;;
23658;SDS011;12006;42.666;23.326;2022-12-31T01:28:33;43.30;;;30.77;;
23658;SDS011;12006;42.666;23.326;2022-12-31T01:31:01;48.80;;;33.40;;
23658;SDS011;12006;42.666;23.326;2022-12-31T01:33:27;48.80;;;36.83;;
23658;SDS011;12006;42.666;23.326;2022-12-31T01:35:52;42.70;;;31.03;;
23658;SDS011;12006;42.666;23.326;2022-12-31T01:38:17;42.27;;;31.13;;
23658;SDS011;12006;42.666;23.326;2022-12-31T01:40:42;37.73;;;27.17;;
23658;SDS011;12006;42.666;23.326;2022-12-31T01:43:15;36.17;;;29.37;;
23658;SDS011;12006;42.666;23.326;2022-12-31T01:45:41;42.60;;;30.13;;
23658;SDS011;12006;42.666;23.326;2022-12-31T01:48:06;43.97;;;31.67;;
23658;SDS011;12006;42.666;23.326;2022-12-31T01:50:34;44.27;;;33.30;;
23658;SDS011;12006;42.666;23.326;2022-12-31T01:53:02;44.07;;;33.20;;
23658;SDS011;12006;42.666;23.326;2022-12-31T01:57:58;42.00;;;30.77;;
23658;SDS011;12006;42.666;23.326;2022-12-31T02:00:24;43.27;;;33.10;;
23658;SDS011;12006;42.666;23.326;2022-12-31T02:02:50;44.47;;;33.20;;
23658;SDS011;12006;42.666;23.326;2022-12-31T02:07:44;46.07;;;33.40;;
23658;SDS011;12006;42.666;23.326;2022-12-31T02:10:11;53.10;;;36.80;;
23658;SDS011;12006;42.666;23.326;2022-12-31T02:12:36;49.90;;;34.23;;
23658;SDS011;12006;42.666;23.326;2022-12-31T02:15:02;48.80;;;33.83;;
23658;SDS011;12006;42.666;23.326;2022-12-31T02:17:30;47.13;;;35.60;;
23658;SDS011;12006;42.666;23.326;2022-12-31T02:28:12;51.43;;;37.80;;
23658;SDS011;12006;42.666;23.326;2022-12-31T02:30:39;55.97;;;38.27;;
23658;SDS011;12006;42.666;23.326;2022-12-31T02:38:03;60.80;;;39.00;;
23658;SDS011;12006;42.666;23.326;2022-12-31T02:40:31;55.53;;;39.60;;
23658;SDS011;12006;42.666;23.326;2022-12-31T02:42:57;49.00;;;37.00;;
23658;SDS011;12006;42.666;23.326;2022-12-31T02:45:26;52.57;;;38.23;;
23658;SDS011;12006;42.666;23.326;2022-12-31T02:50:41;51.93;;;36.77;;
23658;SDS011;12006;42.666;23.326;2022-12-31T03:00:45;50.30;;;36.30;;
23658;SDS011;12006;42.666;23.326;2022-12-31T03:03:29;49.43;;;35.10;;
23658;SDS011;12006;42.666;23.326;2022-12-31T03:05:54;53.07;;;39.27;;
23658;SDS011;12006;42.666;23.326;2022-12-31T03:08:21;53.90;;;37.43;;
23658;SDS011;12006;42.666;23.326;2022-12-31T03:10:47;50.30;;;38.80;;
23658;SDS011;12006;42.666;23.326;2022-12-31T03:13:12;52.10;;;38.60;;
23658;SDS011;12006;42.666;23.326;2022-12-31T03:15:37;54.53;;;40.50;;
23658;SDS011;12006;42.666;23.326;2022-12-31T03:18:21;51.53;;;37.70;;
23658;SDS011;12006;42.666;23.326;2022-12-31T03:21:10;53.60;;;38.93;;
23658;SDS011;12006;42.666;23.326;2022-12-31T03:23:53;54.33;;;38.67;;
23658;SDS011;12006;42.666;23.326;2022-12-31T03:26:37;57.10;;;40.03;;
23658;SDS011;12006;42.666;23.326;2022-12-31T03:29:02;51.00;;;38.53;;
23658;SDS011;12006;42.666;23.326;2022-12-31T03:31:28;54.70;;;40.13;;
23658;SDS011;12006;42.666;23.326;2022-12-31T03:33:53;62.43;;;42.60;;
23658;SDS011;12006;42.666;23.326;2022-12-31T03:36:18;52.30;;;37.10;;
23658;SDS011;12006;42.666;23.326;2022-12-31T03:38:43;55.10;;;38.30;;
23658;SDS011;12006;42.666;23.326;2022-12-31T03:41:09;53.83;;;39.07;;
23658;SDS011;12006;42.666;23.326;2022-12-31T03:43:34;56.30;;;39.60;;
23658;SDS011;12006;42.666;23.326;2022-12-31T03:46:00;53.10;;;37.27;;
23658;SDS011;12006;42.666;23.326;2022-12-31T03:48:25;54.07;;;38.50;;
23658;SDS011;12006;42.666;23.326;2022-12-31T03:50:50;52.47;;;37.40;;
23658;SDS011;12006;42.666;23.326;2022-12-31T03:53:16;57.60;;;41.20;;
23658;SDS011;12006;42.666;23.326;2022-12-31T03:55:41;56.03;;;37.87;;
23658;SDS011;12006;42.666;23.326;2022-12-31T03:58:06;57.47;;;39.63;;
23658;SDS011;12006;42.666;23.326;2022-12-31T04:00:32;55.10;;;39.20;;
23658;SDS011;12006;42.666;23.326;2022-12-31T04:02:57;51.90;;;37.40;;
23658;SDS011;12006;42.666;23.326;2022-12-31T04:05:22;52.23;;;37.80;;
23658;SDS011;12006;42.666;23.326;2022-12-31T04:07:48;52.23;;;38.13;;
23658;SDS011;12006;42.666;23.326;2022-12-31T04:10:14;46.83;;;34.43;;
23658;SDS011;12006;42.666;23.326;2022-12-31T04:12:40;52.53;;;35.30;;
23658;SDS011;12006;42.666;23.326;2022-12-31T04:15:05;48.40;;;36.33;;
23658;SDS011;12006;42.666;23.326;2022-12-31T04:17:31;46.20;;;32.53;;
23658;SDS011;12006;42.666;23.326;2022-12-31T04:19:56;46.83;;;34.27;;
23658;SDS011;12006;42.666;23.326;2022-12-31T04:22:22;53.17;;;35.77;;
23658;SDS011;12006;42.666;23.326;2022-12-31T04:24:47;48.20;;;35.80;;
23658;SDS011;12006;42.666;23.326;2022-12-31T04:27:13;50.43;;;35.00;;
23658;SDS011;12006;42.666;23.326;2022-12-31T04:29:38;47.90;;;33.73;;
23658;SDS011;12006;42.666;23.326;2022-12-31T04:32:04;46.97;;;32.57;;
23658;SDS011;12006;42.666;23.326;2022-12-31T04:34:29;44.40;;;33.00;;
23658;SDS011;12006;42.666;23.326;2022-12-31T04:36:54;44.30;;;30.17;;
23658;SDS011;12006;42.666;23.326;2022-12-31T04:39:20;45.60;;;32.30;;
23658;SDS011;12006;42.666;23.326;2022-12-31T04:41:45;43.93;;;32.07;;
23658;SDS011;12006;42.666;23.326;2022-12-31T04:44:10;41.90;;;30.77;;
23658;SDS011;12006;42.666;23.326;2022-12-31T04:46:36;39.43;;;30.43;;
23658;SDS011;12006;42.666;23.326;2022-12-31T04:49:01;42.47;;;31.27;;
23658;SDS011;12006;42.666;23.326;2022-12-31T04:51:27;44.47;;;31.47;;
23658;SDS011;12006;42.666;23.326;2022-12-31T04:53:53;39.27;;;30.23;;
23658;SDS011;12006;42.666;23.326;2022-12-31T04:56:18;41.30;;;30.97;;
23658;SDS011;12006;42.666;23.326;2022-12-31T04:58:44;44.47;;;33.37;;
23658;SDS011;12006;42.666;23.326;2022-12-31T05:01:09;44.67;;;31.83;;
23658;SDS011;12006;42.666;23.326;2022-12-31T05:03:35;42.87;;;30.80;;
23658;SDS011;12006;42.666;23.326;2022-12-31T05:06:05;40.43;;;31.10;;
23658;SDS011;12006;42.666;23.326;2022-12-31T05:08:31;40.90;;;31.63;;
23658;SDS011;12006;42.666;23.326;2022-12-31T05:10:56;41.40;;;31.73;;
23658;SDS011;12006;42.666;23.326;2022-12-31T05:13:21;42.63;;;32.97;;
23658;SDS011;12006;42.666;23.326;2022-12-31T05:15:47;46.17;;;33.93;;
23658;SDS011;12006;42.666;23.326;2022-12-31T05:18:12;46.53;;;35.13;;
23658;SDS011;12006;42.666;23.326;2022-12-31T05:20:37;53.53;;;36.63;;
23658;SDS011;12006;42.666;23.326;2022-12-31T05:23:03;46.03;;;33.70;;
23658;SDS011;12006;42.666;23.326;2022-12-31T05:25:28;46.00;;;33.67;;
23658;SDS011;12006;42.666;23.326;2022-12-31T05:27:53;47.90;;;32.87;;
23658;SDS011;12006;42.666;23.326;2022-12-31T05:30:19;48.00;;;33.13;;
23658;SDS011;12006;42.666;23.326;2022-12-31T05:32:44;47.60;;;34.30;;
23658;SDS011;12006;42.666;23.326;2022-12-31T05:35:09;42.93;;;33.03;;
23658;SDS011;12006;42.666;23.326;2022-12-31T05:37:35;39.07;;;29.73;;
23658;SDS011;12006;42.666;23.326;2022-12-31T05:40:00;39.53;;;30.10;;
23658;SDS011;12006;42.666;23.326;2022-12-31T05:42:25;38.53;;;29.33;;
23658;SDS011;12006;42.666;23.326;2022-12-31T05:44:51;39.80;;;30.87;;
23658;SDS011;12006;42.666;23.326;2022-12-31T05:47:16;40.03;;;31.63;;
23658;SDS011;12006;42.666;23.326;2022-12-31T05:49:41;42.73;;;30.90;;
23658;SDS011;12006;42.666;23.326;2022-12-31T05:52:07;39.30;;;31.07;;
23658;SDS011;12006;42.666;23.326;2022-12-31T05:54:32;40.57;;;27.57;;
23658;SDS011;12006;42.666;23.326;2022-12-31T05:56:57;41.70;;;29.40;;
23658;SDS011;12006;42.666;23.326;2022-12-31T05:59:23;36.40;;;27.03;;
23658;SDS011;12006;42.666;23.326;2022-12-31T06:01:48;39.77;;;29.10;;
23658;SDS011;12006;42.666;23.326;2022-12-31T06:04:13;45.17;;;31.00;;
23658;SDS011;12006;42.666;23.326;2022-12-31T06:06:38;43.77;;;31.93;;
23658;SDS011;12006;42.666;23.326;2022-12-31T06:09:04;52.30;;;33.97;;
23658;SDS011;12006;42.666;23.326;2022-12-31T06:11:29;42.43;;;32.37;;
23658;SDS011;12006;42.666;23.326;2022-12-31T06:13:54;47.13;;;34.40;;
23658;SDS011;12006;42.666;23.326;2022-12-31T06:16:20;46.87;;;31.93;;
23658;SDS011;12006;42.666;23.326;2022-12-31T06:18:49;44.60;;;32.30;;
23658;SDS011;12006;42.666;23.326;2022-12-31T06:21:18;40.77;;;30.07;;
23658;SDS011;12006;42.666;23.326;2022-12-31T06:23:43;40.53;;;29.03;;
23658;SDS011;12006;42.666;23.326;2022-12-31T06:26:09;36.57;;;30.20;;
23658;SDS011;12006;42.666;23.326;2022-12-31T06:28:34;40.23;;;29.03;;
23658;SDS011;12006;42.666;23.326;2022-12-31T06:31:00;38.70;;;29.37;;
23658;SDS011;12006;42.666;23.326;2022-12-31T06:33:25;41.07;;;28.57;;
23658;SDS011;12006;42.666;23.326;2022-12-31T06:35:54;46.00;;;30.67;;
23658;SDS011;12006;42.666;23.326;2022-12-31T06:38:20;38.97;;;28.97;;
23658;SDS011;12006;42.666;23.326;2022-12-31T06:40:45;38.47;;;28.67;;
23658;SDS011;12006;42.666;23.326;2022-12-31T06:43:10;41.97;;;30.03;;
23658;SDS011;12006;42.666;23.326;2022-12-31T06:45:35;38.83;;;29.00;;
23658;SDS011;12006;42.666;23.326;2022-12-31T06:48:01;39.33;;;27.67;;
23658;SDS011;12006;42.666;23.326;2022-12-31T06:50:26;40.17;;;27.80;;
23658;SDS011;12006;42.666;23.326;2022-12-31T06:52:51;36.73;;;27.00;;
23658;SDS011;12006;42.666;23.326;2022-12-31T06:55:16;35.90;;;26.03;;
23658;SDS011;12006;42.666;23.326;2022-12-31T06:57:42;38.57;;;26.63;;
23658;SDS011;12006;42.666;23.326;2022-12-31T07:00:08;39.60;;;27.83;;
23658;SDS011;12006;42.666;23.326;2022-12-31T07:07:48;35.23;;;26.57;;
23658;SDS011;12006;42.666;23.326;2022-12-31T07:10:22;35.90;;;25.60;;
23658;SDS011;12006;42.666;23.326;2022-12-31T07:13:01;34.87;;;25.23;;
23658;SDS011;12006;42.666;23.326;2022-12-31T07:20:57;37.03;;;25.50;;
23658;SDS011;12006;42.666;23.326;2022-12-31T07:23:22;29.93;;;23.43;;
23658;SDS011;12006;42.666;23.326;2022-12-31T07:25:50;29.70;;;23.80;;
23658;SDS011;12006;42.666;23.326;2022-12-31T07:28:19;31.60;;;23.03;;
23658;SDS011;12006;42.666;23.326;2022-12-31T07:30:52;33.53;;;23.33;;
23658;SDS011;12006;42.666;23.326;2022-12-31T07:33:36;32.83;;;24.93;;
23658;SDS011;12006;42.666;23.326;2022-12-31T07:36:18;33.20;;;24.13;;
23658;SDS011;12006;42.666;23.326;2022-12-31T07:38:52;33.47;;;25.10;;
23658;SDS011;12006;42.666;23.326;2022-12-31T07:44:08;30.20;;;23.53;;
23658;SDS011;12006;42.666;23.326;2022-12-31T07:46:39;31.53;;;24.63;;
23658;SDS011;12006;42.666;23.326;2022-12-31T07:49:08;32.33;;;24.63;;
23658;SDS011;12006;42.666;23.326;2022-12-31T07:51:34;31.67;;;24.33;;
23658;SDS011;12006;42.666;23.326;2022-12-31T07:53:59;30.93;;;25.10;;
23658;SDS011;12006;42.666;23.326;2022-12-31T07:56:25;32.20;;;24.63;;
23658;SDS011;12006;42.666;23.326;2022-12-31T08:04:14;32.30;;;25.10;;
23658;SDS011;12006;42.666;23.326;2022-12-31T08:11:42;32.33;;;25.13;;
23658;SDS011;12006;42.666;23.326;2022-12-31T08:14:10;29.80;;;24.37;;
23658;SDS011;12006;42.666;23.326;2022-12-31T08:16:36;32.47;;;25.80;;
23658;SDS011;12006;42.666;23.326;2022-12-31T08:19:01;33.87;;;25.70;;
23658;SDS011;12006;42.666;23.326;2022-12-31T08:21:31;29.23;;;24.73;;
23658;SDS011;12006;42.666;23.326;2022-12-31T08:26:45;30.17;;;23.73;;
23658;SDS011;12006;42.666;23.326;2022-12-31T08:36:51;22.43;;;18.97;;
23658;SDS011;12006;42.666;23.326;2022-12-31T08:41:48;22.80;;;18.23;;
23658;SDS011;12006;42.666;23.326;2022-12-31T08:49:20;22.63;;;18.03;;
23658;SDS011;12006;42.666;23.326;2022-12-31T08:51:46;22.97;;;17.70;;
23658;SDS011;12006;42.666;23.326;2022-12-31T08:54:11;21.93;;;19.13;;
23658;SDS011;12006;42.666;23.326;2022-12-31T09:01:32;24.00;;;18.20;;
23658;SDS011;12006;42.666;23.326;2022-12-31T09:04:06;22.00;;;17.83;;
23658;SDS011;12006;42.666;23.326;2022-12-31T09:06:37;19.70;;;17.13;;
23658;SDS011;12006;42.666;23.326;2022-12-31T09:16:51;27.63;;;21.60;;
23658;SDS011;12006;42.666;23.326;2022-12-31T09:19:19;30.47;;;23.47;;
23658;SDS011;12006;42.666;23.326;2022-12-31T09:21:45;28.20;;;23.47;;
23658;SDS011;12006;42.666;23.326;2022-12-31T09:24:11;27.00;;;22.20;;
23658;SDS011;12006;42.666;23.326;2022-12-31T09:31:58;28.23;;;22.70;;
23658;SDS011;12006;42.666;23.326;2022-12-31T09:37:17;25.57;;;22.80;;
23658;SDS011;12006;42.666;23.326;2022-12-31T09:39:45;30.23;;;23.63;;
23658;SDS011;12006;42.666;23.326;2022-12-31T09:45:08;30.23;;;24.23;;
23658;SDS011;12006;42.666;23.326;2022-12-31T09:50:20;30.50;;;26.67;;
23658;SDS011;12006;42.666;23.326;2022-12-31T09:53:02;39.83;;;29.27;;
23658;SDS011;12006;42.666;23.326;2022-12-31T09:55:43;35.93;;;31.43;;
23658;SDS011;12006;42.666;23.326;2022-12-31T10:03:28;42.60;;;35.13;;
23658;SDS011;12006;42.666;23.326;2022-12-31T10:11:15;45.67;;;40.13;;
23658;SDS011;12006;42.666;23.326;2022-12-31T10:24:22;25.93;;;23.20;;
23658;SDS011;12006;42.666;23.326;2022-12-31T10:27:12;25.30;;;21.97;;
23658;SDS011;12006;42.666;23.326;2022-12-31T10:32:16;24.97;;;20.90;;
23658;SDS011;12006;42.666;23.326;2022-12-31T10:37:37;25.10;;;20.30;;
23658;SDS011;12006;42.666;23.326;2022-12-31T10:58:39;24.63;;;19.73;;
23658;SDS011;12006;42.666;23.326;2022-12-31T11:09:12;25.10;;;20.97;;
23658;SDS011;12006;42.666;23.326;2022-12-31T11:14:32;24.67;;;20.47;;
23658;SDS011;12006;42.666;23.326;2022-12-31T11:17:04;25.00;;;19.93;;
23658;SDS011;12006;42.666;23.326;2022-12-31T11:30:02;27.70;;;20.93;;
23658;SDS011;12006;42.666;23.326;2022-12-31T11:32:35;22.80;;;20.03;;
23658;SDS011;12006;42.666;23.326;2022-12-31T11:37:48;29.77;;;21.87;;
23658;SDS011;12006;42.666;23.326;2022-12-31T11:45:20;27.53;;;22.23;;
23658;SDS011;12006;42.666;23.326;2022-12-31T11:47:53;27.40;;;21.07;;
23658;SDS011;12006;42.666;23.326;2022-12-31T11:58:20;26.43;;;22.60;;
23658;SDS011;12006;42.666;23.326;2022-12-31T12:00:51;25.93;;;22.93;;
23658;SDS011;12006;42.666;23.326;2022-12-31T12:03:18;26.50;;;22.93;;
23658;SDS011;12006;42.666;23.326;2022-12-31T12:05:43;30.07;;;21.83;;
23658;SDS011;12006;42.666;23.326;2022-12-31T12:08:09;26.67;;;23.13;;
23658;SDS011;12006;42.666;23.326;2022-12-31T12:13:13;24.50;;;21.83;;
23658;SDS011;12006;42.666;23.326;2022-12-31T12:15:53;25.47;;;22.77;;
23658;SDS011;12006;42.666;23.326;2022-12-31T12:21:11;28.10;;;22.67;;
23658;SDS011;12006;42.666;23.326;2022-12-31T12:23:38;31.73;;;25.50;;
23658;SDS011;12006;42.666;23.326;2022-12-31T12:26:03;29.67;;;24.67;;
23658;SDS011;12006;42.666;23.326;2022-12-31T12:28:30;30.07;;;26.17;;
23658;SDS011;12006;42.666;23.326;2022-12-31T12:31:05;27.87;;;24.87;;
23658;SDS011;12006;42.666;23.326;2022-12-31T12:33:40;32.10;;;26.40;;
23658;SDS011;12006;42.666;23.326;2022-12-31T12:36:09;30.00;;;24.97;;
23658;SDS011;12006;42.666;23.326;2022-12-31T12:38:35;30.43;;;26.40;;
23658;SDS011;12006;42.666;23.326;2022-12-31T12:41:02;32.93;;;27.00;;
23658;SDS011;12006;42.666;23.326;2022-12-31T12:43:29;32.90;;;27.97;;
23658;SDS011;12006;42.666;23.326;2022-12-31T12:45:57;35.80;;;28.77;;
23658;SDS011;12006;42.666;23.326;2022-12-31T12:48:42;33.13;;;29.47;;
23658;SDS011;12006;42.666;23.326;2022-12-31T12:54:14;35.27;;;30.63;;
23658;SDS011;12006;42.666;23.326;2022-12-31T13:04:34;39.40;;;31.90;;
23658;SDS011;12006;42.666;23.326;2022-12-31T13:15:11;35.73;;;30.20;;
23658;SDS011;12006;42.666;23.326;2022-12-31T13:20:07;37.37;;;32.73;;
23658;SDS011;12006;42.666;23.326;2022-12-31T13:22:39;37.87;;;33.30;;
23658;SDS011;12006;42.666;23.326;2022-12-31T13:25:20;38.30;;;32.97;;
23658;SDS011;12006;42.666;23.326;2022-12-31T13:27:48;38.50;;;33.97;;
23658;SDS011;12006;42.666;23.326;2022-12-31T13:30:22;35.37;;;31.13;;
23658;SDS011;12006;42.666;23.326;2022-12-31T13:32:52;35.30;;;30.83;;
23658;SDS011;12006;42.666;23.326;2022-12-31T13:35:26;35.90;;;31.80;;
23658;SDS011;12006;42.666;23.326;2022-12-31T13:37:54;34.30;;;30.37;;
23658;SDS011;12006;42.666;23.326;2022-12-31T13:41:08;33.03;;;29.23;;
23658;SDS011;12006;42.666;23.326;2022-12-31T13:43:13;37.87;;;30.63;;
23658;SDS011;12006;42.666;23.326;2022-12-31T13:45:39;35.47;;;30.27;;
23658;SDS011;12006;42.666;23.326;2022-12-31T13:48:11;37.33;;;31.83;;
23658;SDS011;12006;42.666;23.326;2022-12-31T13:50:47;35.43;;;30.50;;
23658;SDS011;12006;42.666;23.326;2022-12-31T13:55:45;34.10;;;30.10;;
23658;SDS011;12006;42.666;23.326;2022-12-31T13:58:22;35.17;;;31.33;;
23658;SDS011;12006;42.666;23.326;2022-12-31T14:00:55;37.27;;;30.23;;
23658;SDS011;12006;42.666;23.326;2022-12-31T14:05:52;34.57;;;29.67;;
23658;SDS011;12006;42.666;23.326;2022-12-31T14:08:19;36.87;;;28.93;;
23658;SDS011;12006;42.666;23.326;2022-12-31T14:15:48;30.60;;;24.67;;
23658;SDS011;12006;42.666;23.326;2022-12-31T14:21:11;27.10;;;23.60;;
23658;SDS011;12006;42.666;23.326;2022-12-31T14:24:00;33.53;;;27.90;;
23658;SDS011;12006;42.666;23.326;2022-12-31T14:26:30;32.30;;;27.03;;
23658;SDS011;12006;42.666;23.326;2022-12-31T14:33:50;41.63;;;28.73;;
23658;SDS011;12006;42.666;23.326;2022-12-31T14:36:24;35.43;;;27.83;;
23658;SDS011;12006;42.666;23.326;2022-12-31T14:47:07;38.13;;;29.10;;
23658;SDS011;12006;42.666;23.326;2022-12-31T14:49:40;38.37;;;28.77;;
23658;SDS011;12006;42.666;23.326;2022-12-31T14:54:39;45.27;;;30.27;;
23658;SDS011;12006;42.666;23.326;2022-12-31T14:57:23;40.77;;;30.53;;
23658;SDS011;12006;42.666;23.326;2022-12-31T14:59:56;40.27;;;29.90;;
23658;SDS011;12006;42.666;23.326;2022-12-31T15:02:29;37.50;;;28.67;;
23658;SDS011;12006;42.666;23.326;2022-12-31T15:05:03;46.57;;;31.00;;
23658;SDS011;12006;42.666;23.326;2022-12-31T15:08:06;39.80;;;30.43;;
23658;SDS011;12006;42.666;23.326;2022-12-31T15:13:04;41.30;;;30.00;;
23658;SDS011;12006;42.666;23.326;2022-12-31T15:15:35;40.80;;;30.17;;
23658;SDS011;12006;42.666;23.326;2022-12-31T15:23:11;44.53;;;32.80;;
23658;SDS011;12006;42.666;23.326;2022-12-31T15:25:37;42.57;;;31.67;;
23658;SDS011;12006;42.666;23.326;2022-12-31T15:28:03;47.30;;;32.43;;
23658;SDS011;12006;42.666;23.326;2022-12-31T15:30:45;43.60;;;31.37;;
23658;SDS011;12006;42.666;23.326;2022-12-31T15:35:54;41.13;;;31.90;;
23658;SDS011;12006;42.666;23.326;2022-12-31T15:38:34;45.50;;;32.20;;
23658;SDS011;12006;42.666;23.326;2022-12-31T15:41:00;43.80;;;31.77;;
23658;SDS011;12006;42.666;23.326;2022-12-31T15:43:39;44.13;;;33.37;;
23658;SDS011;12006;42.666;23.326;2022-12-31T15:48:52;46.80;;;32.83;;
23658;SDS011;12006;42.666;23.326;2022-12-31T15:51:24;42.30;;;32.40;;
23658;SDS011;12006;42.666;23.326;2022-12-31T15:53:51;46.80;;;31.13;;
23658;SDS011;12006;42.666;23.326;2022-12-31T15:56:23;43.43;;;31.57;;
23658;SDS011;12006;42.666;23.326;2022-12-31T15:58:52;44.17;;;31.87;;
23658;SDS011;12006;42.666;23.326;2022-12-31T16:01:24;39.70;;;30.53;;
23658;SDS011;12006;42.666;23.326;2022-12-31T16:03:55;45.13;;;31.33;;
23658;SDS011;12006;42.666;23.326;2022-12-31T16:06:21;45.17;;;32.53;;
23658;SDS011;12006;42.666;23.326;2022-12-31T16:08:47;47.67;;;34.83;;
23658;SDS011;12006;42.666;23.326;2022-12-31T16:11:12;42.83;;;32.03;;
23658;SDS011;12006;42.666;23.326;2022-12-31T16:13:39;48.77;;;33.40;;
23658;SDS011;12006;42.666;23.326;2022-12-31T16:16:06;49.63;;;34.57;;
23658;SDS011;12006;42.666;23.326;2022-12-31T16:18:38;47.40;;;33.40;;
23658;SDS011;12006;42.666;23.326;2022-12-31T16:21:04;50.80;;;36.10;;
23658;SDS011;12006;42.666;23.326;2022-12-31T16:23:30;49.67;;;34.77;;
23658;SDS011;12006;42.666;23.326;2022-12-31T16:25:56;45.47;;;33.87;;
23658;SDS011;12006;42.666;23.326;2022-12-31T16:28:26;51.20;;;35.17;;
23658;SDS011;12006;42.666;23.326;2022-12-31T16:31:03;48.27;;;33.40;;
23658;SDS011;12006;42.666;23.326;2022-12-31T16:33:29;44.40;;;31.97;;
23658;SDS011;12006;42.666;23.326;2022-12-31T16:35:56;48.67;;;31.13;;
23658;SDS011;12006;42.666;23.326;2022-12-31T16:38:22;47.03;;;32.43;;
23658;SDS011;12006;42.666;23.326;2022-12-31T16:41:07;47.80;;;32.90;;
23658;SDS011;12006;42.666;23.326;2022-12-31T16:43:40;45.27;;;32.40;;
23658;SDS011;12006;42.666;23.326;2022-12-31T16:46:21;46.67;;;32.63;;
23658;SDS011;12006;42.666;23.326;2022-12-31T16:51:19;47.03;;;32.87;;
23658;SDS011;12006;42.666;23.326;2022-12-31T16:53:44;47.70;;;33.97;;
23658;SDS011;12006;42.666;23.326;2022-12-31T16:56:14;51.83;;;34.87;;
23658;SDS011;12006;42.666;23.326;2022-12-31T16:58:42;43.83;;;34.57;;
23658;SDS011;12006;42.666;23.326;2022-12-31T17:03:37;55.47;;;36.17;;
23658;SDS011;12006;42.666;23.326;2022-12-31T17:11:04;49.20;;;33.60;;
23658;SDS011;12006;42.666;23.326;2022-12-31T17:13:38;44.87;;;34.40;;
23658;SDS011;12006;42.666;23.326;2022-12-31T17:16:03;46.27;;;31.97;;
23658;SDS011;12006;42.666;23.326;2022-12-31T17:18:30;45.93;;;32.93;;
23658;SDS011;12006;42.666;23.326;2022-12-31T17:21:03;43.47;;;29.90;;
23658;SDS011;12006;42.666;23.326;2022-12-31T17:23:30;47.47;;;32.67;;
23658;SDS011;12006;42.666;23.326;2022-12-31T17:26:06;44.63;;;30.87;;
23658;SDS011;12006;42.666;23.326;2022-12-31T17:28:41;41.90;;;30.30;;
23658;SDS011;12006;42.666;23.326;2022-12-31T17:33:52;48.43;;;32.60;;
23658;SDS011;12006;42.666;23.326;2022-12-31T17:36:21;47.13;;;32.37;;
23658;SDS011;12006;42.666;23.326;2022-12-31T17:38:47;41.63;;;33.00;;
23658;SDS011;12006;42.666;23.326;2022-12-31T17:41:20;49.80;;;34.77;;
23658;SDS011;12006;42.666;23.326;2022-12-31T17:43:46;48.97;;;33.27;;
23658;SDS011;12006;42.666;23.326;2022-12-31T17:46:15;54.67;;;33.40;;
23658;SDS011;12006;42.666;23.326;2022-12-31T17:48:41;47.93;;;32.83;;
23658;SDS011;12006;42.666;23.326;2022-12-31T17:51:06;46.97;;;33.30;;
23658;SDS011;12006;42.666;23.326;2022-12-31T17:53:32;49.77;;;31.17;;
23658;SDS011;12006;42.666;23.326;2022-12-31T17:55:59;44.67;;;30.67;;
23658;SDS011;12006;42.666;23.326;2022-12-31T17:58:35;48.53;;;31.03;;
23658;SDS011;12006;42.666;23.326;2022-12-31T18:01:05;45.30;;;31.43;;
23658;SDS011;12006;42.666;23.326;2022-12-31T18:03:31;42.67;;;30.20;;
23658;SDS011;12006;42.666;23.326;2022-12-31T18:05:56;38.27;;;31.20;;
23658;SDS011;12006;42.666;23.326;2022-12-31T18:08:21;41.80;;;29.53;;
23658;SDS011;12006;42.666;23.326;2022-12-31T18:10:47;40.07;;;32.17;;
23658;SDS011;12006;42.666;23.326;2022-12-31T18:13:13;36.37;;;29.17;;
23658;SDS011;12006;42.666;23.326;2022-12-31T18:15:39;40.80;;;31.40;;
23658;SDS011;12006;42.666;23.326;2022-12-31T18:18:26;43.33;;;31.27;;
23658;SDS011;12006;42.666;23.326;2022-12-31T18:20:51;42.73;;;32.30;;
23658;SDS011;12006;42.666;23.326;2022-12-31T18:23:18;42.33;;;31.47;;
23658;SDS011;12006;42.666;23.326;2022-12-31T18:25:44;49.60;;;33.20;;
23658;SDS011;12006;42.666;23.326;2022-12-31T18:28:09;49.63;;;35.43;;
23658;SDS011;12006;42.666;23.326;2022-12-31T18:30:36;48.00;;;35.63;;
23658;SDS011;12006;42.666;23.326;2022-12-31T18:33:01;49.20;;;35.60;;
23658;SDS011;12006;42.666;23.326;2022-12-31T18:35:26;51.20;;;33.33;;